createdAt,value
2019-01-27T00:12:25.111Z,5.6
2019-01-27T00:27:37.061Z,5.5
2019-01-27T00:42:46.107Z,5.5
2019-01-27T00:58:01.909Z,5.5
2019-01-27T01:13:14.691Z,5.5
2019-01-27T01:28:28.222Z,5.4
2019-01-27T01:43:29.797Z,5.4
2019-01-27T01:58:51.511Z,5.4
2019-01-27T02:14:03.912Z,5.3
2019-01-27T02:29:16.284Z,5.4
2019-01-27T02:44:29.728Z,5.1
2019-01-27T02:59:39.327Z,4.8
2019-01-27T03:14:53.040Z,4.6
2019-01-27T03:30:05.232Z,4.5
2019-01-27T03:45:17.285Z,4.4
2019-01-27T04:00:22.026Z,4.1
2019-01-27T04:15:41.241Z,4.3
2019-01-27T04:30:53.343Z,4.4
2019-01-27T04:46:05.690Z,4.4
2019-01-27T05:01:17.460Z,4.3
2019-01-27T05:16:29.489Z,4.3
2019-01-27T05:31:41.541Z,4.4
2019-01-27T05:46:53.624Z,4.4
2019-01-27T06:02:05.725Z,4.4
2019-01-27T06:17:13.682Z,4.6
2019-01-27T06:32:30.037Z,4.9
2019-01-27T06:47:42.243Z,4.9
2019-01-27T07:02:55.890Z,5.1
2019-01-27T07:18:07.005Z,5.1
2019-01-27T07:33:19.161Z,5.4
2019-01-27T07:48:31.745Z,5.6
2019-01-27T08:03:44.158Z,5.8
2019-01-27T08:18:56.777Z,6
2019-01-27T08:34:07.756Z,6.3
2019-01-27T08:49:22.254Z,6.4
2019-01-27T09:04:35.075Z,6.5
2019-01-27T09:19:47.967Z,6.8
2019-01-27T09:34:53.323Z,7
2019-01-27T09:50:14.396Z,7.1
2019-01-27T10:05:27.476Z,7.5
2019-01-27T10:20:40.799Z,7.7
2019-01-27T10:35:54.029Z,8
2019-01-27T10:51:07.978Z,9
2019-01-27T11:06:21.759Z,9.4
2019-01-27T11:21:35.610Z,8.9
2019-01-27T11:36:49.447Z,8.6
2019-01-27T11:51:54.698Z,8.5
2019-01-27T12:07:16.687Z,8.3
2019-01-27T12:22:29.708Z,7.9
2019-01-27T12:37:43.109Z,8.1
2019-01-27T12:52:56.537Z,8.1
2019-01-27T13:08:09.601Z,8.1
2019-01-27T13:23:23.253Z,8.1
2019-01-27T13:38:36.634Z,8.2
2019-01-27T13:53:50.170Z,9.6
2019-01-27T14:08:59.064Z,10.3
2019-01-27T14:24:23.546Z,10.9
2019-01-27T14:39:38.227Z,11.3
2019-01-27T14:54:53.051Z,10.1
2019-01-27T15:10:07.782Z,9.4
2019-01-27T15:25:15.686Z,8.8
2019-01-27T15:40:35.161Z,8.3
2019-01-27T15:55:48.551Z,7.7
2019-01-27T16:11:01.571Z,7.4
2019-01-27T16:26:14.591Z,7.1
2019-01-27T16:41:27.631Z,7
2019-01-27T16:56:40.535Z,6.9
2019-01-27T17:11:53.517Z,6.6
2019-01-27T17:27:06.144Z,6.4
2019-01-27T17:42:15.618Z,5.9
2019-01-27T17:57:31.290Z,5.6
2019-01-27T18:12:43.646Z,5.3
2019-01-27T18:27:55.934Z,5.1
2019-01-27T18:43:00.955Z,4.9
2019-01-27T18:58:20.337Z,4.8
2019-01-27T19:13:32.501Z,4.7
2019-01-27T19:44:57.581Z,5
2019-01-27T20:00:27.428Z,4.8
2019-01-27T20:15:39.517Z,4.7
2019-01-27T20:30:49.176Z,4.5
2019-01-27T20:46:03.710Z,4.5
2019-01-27T21:01:15.702Z,4.5
2019-01-27T21:16:27.749Z,4.6
2019-01-27T21:31:32.203Z,4.6
2019-01-27T21:46:52.019Z,4.7
2019-01-27T22:02:04.129Z,4.9
2019-01-27T22:17:16.335Z,5
2019-01-27T22:32:18.910Z,5.2
2019-01-27T22:47:40.795Z,5.3
2019-01-27T23:02:53.216Z,6
2019-01-27T23:18:05.716Z,5.7
2019-01-27T23:33:18.166Z,5.6
2019-01-27T23:48:30.670Z,5.5
